sensor_id;sensor_type;location;lat;lon;timestamp;pressure;altitude;pressure_sealevel;temperature;humidity
41467;BME280;27205;53.690;19.948;2023-05-08T00:03:38;101336.08;;;4.62;37.30
41467;BME280;27205;53.690;19.948;2023-05-08T00:08:41;101341.73;;;4.57;37.19
41467;BME280;27205;53.690;19.948;2023-05-08T00:13:43;101343.39;;;4.47;37.68
41467;BME280;27205;53.690;19.948;2023-05-08T00:18:46;101338.11;;;4.38;38.12
41467;BME280;27205;53.690;19.948;2023-05-08T00:23:48;101337.14;;;4.25;38.14
41467;BME280;27205;53.690;19.948;2023-05-08T00:28:50;101344.03;;;4.12;37.75
41467;BME280;27205;53.690;19.948;2023-05-08T00:33:52;101348.17;;;4.01;38.49
41467;BME280;27205;53.690;19.948;2023-05-08T00:38:54;101353.48;;;3.86;38.64
41467;BME280;27205;53.690;19.948;2023-05-08T00:43:57;101352.09;;;3.71;38.62
41467;BME280;27205;53.690;19.948;2023-05-08T00:49:00;101354.27;;;3.56;39.74
41467;BME280;27205;53.690;19.948;2023-05-08T00:54:02;101358.30;;;3.46;40.04
41467;BME280;27205;53.690;19.948;2023-05-08T00:59:08;101360.02;;;3.41;40.46
41467;BME280;27205;53.690;19.948;2023-05-08T01:04:13;101369.89;;;3.35;39.83
41467;BME280;27205;53.690;19.948;2023-05-08T01:09:15;101371.41;;;3.23;40.26
41467;BME280;27205;53.690;19.948;2023-05-08T01:20:01;101374.52;;;3.21;40.91
41467;BME280;27205;53.690;19.948;2023-05-08T01:31:07;101383.02;;;3.24;41.65
41467;BME280;27205;53.690;19.948;2023-05-08T01:37:16;101387.05;;;3.21;41.74
41467;BME280;27205;53.690;19.948;2023-05-08T01:42:09;101388.52;;;3.14;41.54
41467;BME280;27205;53.690;19.948;2023-05-08T01:47:16;101389.57;;;3.05;42.27
41467;BME280;27205;53.690;19.948;2023-05-08T01:52:30;101388.64;;;3.05;43.19
41467;BME280;27205;53.690;19.948;2023-05-08T01:57:38;101389.02;;;3.01;42.99
41467;BME280;27205;53.690;19.948;2023-05-08T02:02:41;101396.38;;;2.94;42.92
41467;BME280;27205;53.690;19.948;2023-05-08T02:07:45;101394.71;;;2.87;42.89
41467;BME280;27205;53.690;19.948;2023-05-08T02:12:49;101395.61;;;2.79;42.93
41467;BME280;27205;53.690;19.948;2023-05-08T02:17:53;101402.65;;;2.71;43.16
41467;BME280;27205;53.690;19.948;2023-05-08T02:22:56;101407.05;;;2.63;43.03
41467;BME280;27205;53.690;19.948;2023-05-08T02:27:59;101406.92;;;2.55;43.19
41467;BME280;27205;53.690;19.948;2023-05-08T02:33:02;101404.65;;;2.51;43.70
41467;BME280;27205;53.690;19.948;2023-05-08T02:38:06;101407.78;;;2.56;43.70
41467;BME280;27205;53.690;19.948;2023-05-08T02:43:11;101418.23;;;2.48;42.98
41467;BME280;27205;53.690;19.948;2023-05-08T02:48:21;101420.06;;;2.44;43.83
41467;BME280;27205;53.690;19.948;2023-05-08T02:53:41;101418.05;;;2.30;43.79
41467;BME280;27205;53.690;19.948;2023-05-08T02:59:30;101413.22;;;2.28;44.10
41467;BME280;27205;53.690;19.948;2023-05-08T03:04:21;101419.17;;;2.26;43.95
41467;BME280;27205;53.690;19.948;2023-05-08T03:09:35;101419.94;;;2.22;44.33
41467;BME280;27205;53.690;19.948;2023-05-08T03:14:42;101424.20;;;2.23;44.02
41467;BME280;27205;53.690;19.948;2023-05-08T03:19:49;101419.88;;;2.24;44.29
41467;BME280;27205;53.690;19.948;2023-05-08T03:24:54;101422.36;;;2.27;44.46
41467;BME280;27205;53.690;19.948;2023-05-08T03:29:58;101425.97;;;2.31;44.63
41467;BME280;27205;53.690;19.948;2023-05-08T03:35:03;101431.84;;;2.39;44.73
41467;BME280;27205;53.690;19.948;2023-05-08T03:40:06;101435.86;;;2.47;44.31
41467;BME280;27205;53.690;19.948;2023-05-08T03:45:10;101430.86;;;2.56;44.04
41467;BME280;27205;53.690;19.948;2023-05-08T03:50:12;101429.53;;;2.69;44.19
41467;BME280;27205;53.690;19.948;2023-05-08T03:55:15;101437.78;;;2.87;43.98
41467;BME280;27205;53.690;19.948;2023-05-08T04:05:46;101437.11;;;3.35;43.97
41467;BME280;27205;53.690;19.948;2023-05-08T04:11:03;101443.23;;;3.65;44.07
41467;BME280;27205;53.690;19.948;2023-05-08T04:16:29;101446.23;;;3.92;44.24
41467;BME280;27205;53.690;19.948;2023-05-08T04:21:34;101445.91;;;4.15;44.29
41467;BME280;27205;53.690;19.948;2023-05-08T04:26:38;101447.30;;;4.45;44.56
41467;BME280;27205;53.690;19.948;2023-05-08T04:31:41;101454.64;;;4.70;44.55
41467;BME280;27205;53.690;19.948;2023-05-08T04:36:44;101461.44;;;4.95;44.78
41467;BME280;27205;53.690;19.948;2023-05-08T04:41:47;101464.30;;;5.19;44.61
41467;BME280;27205;53.690;19.948;2023-05-08T04:46:49;101466.23;;;5.40;44.87
41467;BME280;27205;53.690;19.948;2023-05-08T04:51:52;101469.62;;;5.63;45.11
41467;BME280;27205;53.690;19.948;2023-05-08T04:56:54;101474.02;;;5.88;44.98
41467;BME280;27205;53.690;19.948;2023-05-08T05:01:57;101481.02;;;6.12;44.97
41467;BME280;27205;53.690;19.948;2023-05-08T05:07:00;101480.71;;;6.39;45.02
41467;BME280;27205;53.690;19.948;2023-05-08T05:12:03;101483.60;;;6.66;45.06
41467;BME280;27205;53.690;19.948;2023-05-08T05:17:05;101486.60;;;6.93;45.40
41467;BME280;27205;53.690;19.948;2023-05-08T05:22:09;101489.81;;;7.19;45.40
41467;BME280;27205;53.690;19.948;2023-05-08T05:27:11;101495.14;;;7.45;45.80
41467;BME280;27205;53.690;19.948;2023-05-08T05:32:13;101496.65;;;7.71;45.73
41467;BME280;27205;53.690;19.948;2023-05-08T05:37:15;101507.27;;;7.95;46.00
41467;BME280;27205;53.690;19.948;2023-05-08T05:42:18;101511.33;;;8.18;46.38
41467;BME280;27205;53.690;19.948;2023-05-08T05:47:20;101511.57;;;8.43;46.10
41467;BME280;27205;53.690;19.948;2023-05-08T05:52:22;101514.98;;;8.71;46.15
41467;BME280;27205;53.690;19.948;2023-05-08T05:57:25;101515.52;;;8.98;45.80
41467;BME280;27205;53.690;19.948;2023-05-08T06:02:27;101512.71;;;9.21;46.05
41467;BME280;27205;53.690;19.948;2023-05-08T06:07:29;101519.40;;;9.44;46.10
41467;BME280;27205;53.690;19.948;2023-05-08T06:12:32;101527.13;;;9.65;46.09
41467;BME280;27205;53.690;19.948;2023-05-08T06:17:34;101531.80;;;9.92;46.09
41467;BME280;27205;53.690;19.948;2023-05-08T06:22:37;101535.06;;;10.12;46.51
41467;BME280;27205;53.690;19.948;2023-05-08T06:27:40;101536.61;;;10.33;46.55
41467;BME280;27205;53.690;19.948;2023-05-08T06:32:43;101536.64;;;10.57;46.18
41467;BME280;27205;53.690;19.948;2023-05-08T06:37:45;101537.27;;;10.82;46.17
41467;BME280;27205;53.690;19.948;2023-05-08T06:42:47;101538.56;;;11.10;46.11
41467;BME280;27205;53.690;19.948;2023-05-08T06:47:50;101540.52;;;11.35;46.06
41467;BME280;27205;53.690;19.948;2023-05-08T06:52:52;101534.16;;;11.49;45.46
41467;BME280;27205;53.690;19.948;2023-05-08T06:57:54;101532.59;;;11.70;45.62
41467;BME280;27205;53.690;19.948;2023-05-08T07:02:56;101538.95;;;11.97;45.29
41467;BME280;27205;53.690;19.948;2023-05-08T07:07:59;101543.10;;;12.23;45.51
41467;BME280;27205;53.690;19.948;2023-05-08T07:13:01;101543.58;;;12.40;44.93
41467;BME280;27205;53.690;19.948;2023-05-08T07:18:03;101542.58;;;12.59;44.59
41467;BME280;27205;53.690;19.948;2023-05-08T07:23:05;101547.21;;;12.82;44.42
41467;BME280;27205;53.690;19.948;2023-05-08T07:28:08;101547.92;;;12.95;44.29
41467;BME280;27205;53.690;19.948;2023-05-08T07:33:10;101552.29;;;13.07;43.67
41467;BME280;27205;53.690;19.948;2023-05-08T07:38:13;101546.48;;;13.26;43.27
41467;BME280;27205;53.690;19.948;2023-05-08T07:43:15;101547.55;;;13.58;42.66
41467;BME280;27205;53.690;19.948;2023-05-08T07:48:18;101542.11;;;13.73;42.19
41467;BME280;27205;53.690;19.948;2023-05-08T07:53:20;101539.69;;;13.87;42.00
41467;BME280;27205;53.690;19.948;2023-05-08T07:58:22;101540.12;;;14.09;41.02
41467;BME280;27205;53.690;19.948;2023-05-08T08:03:25;101540.21;;;14.19;40.56
41467;BME280;27205;53.690;19.948;2023-05-08T08:08:27;101542.92;;;14.38;39.63
41467;BME280;27205;53.690;19.948;2023-05-08T08:13:30;101545.20;;;14.48;39.07
41467;BME280;27205;53.690;19.948;2023-05-08T08:18:33;101542.58;;;14.58;38.85
41467;BME280;27205;53.690;19.948;2023-05-08T08:23:38;101536.93;;;14.67;38.61
41467;BME280;27205;53.690;19.948;2023-05-08T08:28:41;101536.48;;;14.78;38.28
41467;BME280;27205;53.690;19.948;2023-05-08T08:33:43;101533.58;;;14.96;38.31
41467;BME280;27205;53.690;19.948;2023-05-08T08:38:45;101529.94;;;15.06;37.38
41467;BME280;27205;53.690;19.948;2023-05-08T08:43:48;101533.62;;;15.08;37.61
41467;BME280;27205;53.690;19.948;2023-05-08T08:48:53;101537.29;;;15.18;37.13
41467;BME280;27205;53.690;19.948;2023-05-08T08:54:27;101536.53;;;15.30;36.88
41467;BME280;27205;53.690;19.948;2023-05-08T08:59:30;101533.92;;;15.47;36.11
41467;BME280;27205;53.690;19.948;2023-05-08T09:04:33;101532.48;;;15.46;36.00
41467;BME280;27205;53.690;19.948;2023-05-08T09:09:38;101530.27;;;15.46;35.72
41467;BME280;27205;53.690;19.948;2023-05-08T09:14:41;101526.39;;;15.53;35.59
41467;BME280;27205;53.690;19.948;2023-05-08T09:19:47;101522.90;;;15.64;35.66
41467;BME280;27205;53.690;19.948;2023-05-08T09:24:58;101521.06;;;15.81;35.40
41467;BME280;27205;53.690;19.948;2023-05-08T09:30:08;101517.34;;;15.88;35.19
41467;BME280;27205;53.690;19.948;2023-05-08T09:35:11;101511.17;;;16.02;34.93
41467;BME280;27205;53.690;19.948;2023-05-08T09:40:19;101508.44;;;16.23;34.74
41467;BME280;27205;53.690;19.948;2023-05-08T09:45:30;101507.45;;;16.38;34.59
41467;BME280;27205;53.690;19.948;2023-05-08T09:50:33;101505.16;;;16.49;34.20
41467;BME280;27205;53.690;19.948;2023-05-08T09:55:47;101500.70;;;16.46;33.27
41467;BME280;27205;53.690;19.948;2023-05-08T10:00:50;101497.80;;;16.40;33.08
41467;BME280;27205;53.690;19.948;2023-05-08T10:05:52;101491.55;;;16.51;33.10
41467;BME280;27205;53.690;19.948;2023-05-08T10:11:12;101491.30;;;16.70;33.21
41467;BME280;27205;53.690;19.948;2023-05-08T10:16:17;101490.26;;;16.85;32.85
41467;BME280;27205;53.690;19.948;2023-05-08T10:21:19;101484.20;;;17.01;32.77
41467;BME280;27205;53.690;19.948;2023-05-08T10:26:29;101477.38;;;17.06;32.45
41467;BME280;27205;53.690;19.948;2023-05-08T10:31:34;101473.86;;;17.08;32.12
41467;BME280;27205;53.690;19.948;2023-05-08T10:36:37;101471.16;;;17.23;32.30
41467;BME280;27205;53.690;19.948;2023-05-08T10:41:40;101468.55;;;17.40;32.16
41467;BME280;27205;53.690;19.948;2023-05-08T10:57:31;101467.11;;;17.84;31.11
41467;BME280;27205;53.690;19.948;2023-05-08T11:02:33;101462.30;;;17.87;30.89
41467;BME280;27205;53.690;19.948;2023-05-08T11:07:57;101458.67;;;17.94;30.58
41467;BME280;27205;53.690;19.948;2023-05-08T11:13:00;101453.58;;;18.00;30.82
41467;BME280;27205;53.690;19.948;2023-05-08T11:18:09;101446.06;;;18.13;30.39
41467;BME280;27205;53.690;19.948;2023-05-08T11:23:24;101441.41;;;18.26;30.20
41467;BME280;27205;53.690;19.948;2023-05-08T11:28:30;101441.30;;;18.32;30.04
41467;BME280;27205;53.690;19.948;2023-05-08T11:33:36;101440.75;;;18.33;29.17
41467;BME280;27205;53.690;19.948;2023-05-08T11:38:39;101438.73;;;18.35;29.22
41467;BME280;27205;53.690;19.948;2023-05-08T11:43:57;101440.13;;;18.40;29.07
41467;BME280;27205;53.690;19.948;2023-05-08T11:49:01;101428.99;;;18.42;29.09
41467;BME280;27205;53.690;19.948;2023-05-08T11:54:04;101422.75;;;18.53;28.87
41467;BME280;27205;53.690;19.948;2023-05-08T11:59:07;101421.50;;;18.47;28.37
41467;BME280;27205;53.690;19.948;2023-05-08T12:04:11;101415.66;;;18.38;28.01
41467;BME280;27205;53.690;19.948;2023-05-08T12:09:17;101415.27;;;18.30;28.01
41467;BME280;27205;53.690;19.948;2023-05-08T12:14:22;101410.14;;;18.52;28.04
41467;BME280;27205;53.690;19.948;2023-05-08T12:19:24;101407.70;;;18.63;27.64
41467;BME280;27205;53.690;19.948;2023-05-08T12:24:26;101399.58;;;18.63;27.48
41467;BME280;27205;53.690;19.948;2023-05-08T12:29:28;101401.76;;;18.87;27.84
41467;BME280;27205;53.690;19.948;2023-05-08T12:34:30;101399.85;;;19.08;27.46
41467;BME280;27205;53.690;19.948;2023-05-08T12:39:34;101395.49;;;19.03;27.29
41467;BME280;27205;53.690;19.948;2023-05-08T12:44:38;101397.08;;;19.34;27.56
41467;BME280;27205;53.690;19.948;2023-05-08T12:49:40;101397.90;;;19.66;27.08
41467;BME280;27205;53.690;19.948;2023-05-08T12:54:46;101395.45;;;19.72;27.04
41467;BME280;27205;53.690;19.948;2023-05-08T12:59:49;101380.30;;;19.66;26.78
41467;BME280;27205;53.690;19.948;2023-05-08T13:04:54;101378.39;;;19.83;26.84
41467;BME280;27205;53.690;19.948;2023-05-08T13:09:58;101376.48;;;20.20;26.88
41467;BME280;27205;53.690;19.948;2023-05-08T13:15:04;101371.07;;;20.49;26.71
41467;BME280;27205;53.690;19.948;2023-05-08T13:20:07;101369.71;;;20.72;26.76
41467;BME280;27205;53.690;19.948;2023-05-08T13:25:09;101363.27;;;20.99;26.63
41467;BME280;27205;53.690;19.948;2023-05-08T13:30:12;101361.09;;;21.15;26.47
41467;BME280;27205;53.690;19.948;2023-05-08T13:35:17;101361.61;;;21.36;26.34
41467;BME280;27205;53.690;19.948;2023-05-08T13:40:20;101358.80;;;21.55;26.09
41467;BME280;27205;53.690;19.948;2023-05-08T13:45:22;101351.23;;;21.75;26.18
41467;BME280;27205;53.690;19.948;2023-05-08T13:50:24;101348.71;;;22.19;25.77
41467;BME280;27205;53.690;19.948;2023-05-08T13:55:26;101346.77;;;24.30;24.87
41467;BME280;27205;53.690;19.948;2023-05-08T14:00:29;101352.52;;;28.34;23.68
41467;BME280;27205;53.690;19.948;2023-05-08T14:05:31;101361.42;;;32.95;22.70
41467;BME280;27205;53.690;19.948;2023-05-08T14:10:33;101365.68;;;36.51;19.63
41467;BME280;27205;53.690;19.948;2023-05-08T14:15:36;101362.30;;;38.70;19.59
41467;BME280;27205;53.690;19.948;2023-05-08T14:20:39;101363.95;;;41.88;18.49
41467;BME280;27205;53.690;19.948;2023-05-08T14:25:41;101365.79;;;45.51;17.60
41467;BME280;27205;53.690;19.948;2023-05-08T14:30:43;101369.79;;;49.37;16.04
41467;BME280;27205;53.690;19.948;2023-05-08T14:35:45;101375.80;;;52.79;15.23
41467;BME280;27205;53.690;19.948;2023-05-08T14:40:49;101372.96;;;55.42;13.22
41467;BME280;27205;53.690;19.948;2023-05-08T14:45:51;101377.11;;;57.05;12.04
41467;BME280;27205;53.690;19.948;2023-05-08T14:50:55;101374.19;;;58.48;11.26
41467;BME280;27205;53.690;19.948;2023-05-08T14:55:57;101369.42;;;59.58;10.22
41467;BME280;27205;53.690;19.948;2023-05-08T15:01:00;101370.88;;;60.13;9.01
41467;BME280;27205;53.690;19.948;2023-05-08T15:06:03;101372.39;;;60.83;8.27
41467;BME280;27205;53.690;19.948;2023-05-08T15:11:05;101370.64;;;60.70;7.31
41467;BME280;27205;53.690;19.948;2023-05-08T15:16:08;101362.45;;;60.70;7.29
41467;BME280;27205;53.690;19.948;2023-05-08T15:21:10;101358.45;;;60.49;6.72
41467;BME280;27205;53.690;19.948;2023-05-08T15:26:12;101355.69;;;60.64;6.68
41467;BME280;27205;53.690;19.948;2023-05-08T15:31:14;101355.42;;;60.95;6.67
41467;BME280;27205;53.690;19.948;2023-05-08T15:36:17;101353.42;;;61.22;6.15
41467;BME280;27205;53.690;19.948;2023-05-08T15:41:19;101351.16;;;61.34;5.62
41467;BME280;27205;53.690;19.948;2023-05-08T15:46:22;101346.08;;;60.96;5.37
41467;BME280;27205;53.690;19.948;2023-05-08T15:51:24;101338.73;;;59.92;5.08
41467;BME280;27205;53.690;19.948;2023-05-08T15:56:27;101333.53;;;59.51;5.16
41467;BME280;27205;53.690;19.948;2023-05-08T16:01:29;101328.02;;;58.95;5.32
41467;BME280;27205;53.690;19.948;2023-05-08T16:06:31;101324.79;;;58.47;5.08
41467;BME280;27205;53.690;19.948;2023-05-08T16:11:33;101316.93;;;57.74;5.17
41467;BME280;27205;53.690;19.948;2023-05-08T16:16:37;101303.96;;;55.19;5.41
41467;BME280;27205;53.690;19.948;2023-05-08T16:21:39;101295.36;;;54.62;5.49
41467;BME280;27205;53.690;19.948;2023-05-08T16:26:41;101298.53;;;54.55;5.29
41467;BME280;27205;53.690;19.948;2023-05-08T16:31:43;101297.38;;;54.40;5.58
41467;BME280;27205;53.690;19.948;2023-05-08T16:36:46;101292.75;;;54.12;5.78
41467;BME280;27205;53.690;19.948;2023-05-08T16:41:48;101292.59;;;53.61;5.46
41467;BME280;27205;53.690;19.948;2023-05-08T16:46:50;101297.15;;;53.11;5.62
41467;BME280;27205;53.690;19.948;2023-05-08T16:51:52;101300.02;;;52.19;5.43
41467;BME280;27205;53.690;19.948;2023-05-08T16:56:54;101297.30;;;50.95;5.64
41467;BME280;27205;53.690;19.948;2023-05-08T17:01:56;101294.70;;;49.93;5.72
41467;BME280;27205;53.690;19.948;2023-05-08T17:06:58;101295.39;;;48.21;5.88
41467;BME280;27205;53.690;19.948;2023-05-08T17:12:01;101295.12;;;47.38;6.24
41467;BME280;27205;53.690;19.948;2023-05-08T17:17:03;101297.99;;;46.63;6.27
41467;BME280;27205;53.690;19.948;2023-05-08T17:22:05;101293.46;;;45.70;6.54
41467;BME280;27205;53.690;19.948;2023-05-08T17:27:08;101290.95;;;44.65;6.75
41467;BME280;27205;53.690;19.948;2023-05-08T17:32:10;101288.85;;;43.60;7.05
41467;BME280;27205;53.690;19.948;2023-05-08T17:37:12;101293.21;;;42.03;7.37
41467;BME280;27205;53.690;19.948;2023-05-08T17:42:15;101289.12;;;40.07;7.91
41467;BME280;27205;53.690;19.948;2023-05-08T17:47:17;101287.88;;;38.44;8.44
41467;BME280;27205;53.690;19.948;2023-05-08T17:52:19;101286.51;;;36.71;8.85
41467;BME280;27205;53.690;19.948;2023-05-08T17:57:21;101285.08;;;34.70;9.53
41467;BME280;27205;53.690;19.948;2023-05-08T18:02:23;101289.64;;;31.95;10.16
41467;BME280;27205;53.690;19.948;2023-05-08T18:07:26;101289.23;;;29.74;10.77
41467;BME280;27205;53.690;19.948;2023-05-08T18:12:30;101293.89;;;28.11;11.37
41467;BME280;27205;53.690;19.948;2023-05-08T18:17:33;101296.25;;;26.49;11.94
41467;BME280;27205;53.690;19.948;2023-05-08T18:22:35;101302.35;;;24.76;12.32
41467;BME280;27205;53.690;19.948;2023-05-08T18:27:41;101307.13;;;22.92;13.03
41467;BME280;27205;53.690;19.948;2023-05-08T18:32:43;101313.77;;;21.23;13.94
41467;BME280;27205;53.690;19.948;2023-05-08T18:37:46;101318.50;;;19.93;14.58
41467;BME280;27205;53.690;19.948;2023-05-08T18:42:49;101328.08;;;18.90;15.18
41467;BME280;27205;53.690;19.948;2023-05-08T18:47:51;101326.64;;;17.95;15.79
41467;BME280;27205;53.690;19.948;2023-05-08T18:52:54;101325.72;;;17.15;16.45
41467;BME280;27205;53.690;19.948;2023-05-08T18:57:57;101329.55;;;16.42;16.98
41467;BME280;27205;53.690;19.948;2023-05-08T19:02:59;101332.98;;;15.76;17.18
41467;BME280;27205;53.690;19.948;2023-05-08T19:08:03;101334.73;;;15.20;17.92
41467;BME280;27205;53.690;19.948;2023-05-08T19:13:06;101335.14;;;14.62;18.28
41467;BME280;27205;53.690;19.948;2023-05-08T19:18:08;101334.21;;;14.14;18.60
41467;BME280;27205;53.690;19.948;2023-05-08T19:23:11;101333.56;;;13.68;19.02
41467;BME280;27205;53.690;19.948;2023-05-08T19:28:13;101331.94;;;13.30;19.79
41467;BME280;27205;53.690;19.948;2023-05-08T19:33:16;101331.21;;;12.94;19.84
41467;BME280;27205;53.690;19.948;2023-05-08T19:38:24;101331.24;;;12.68;20.27
41467;BME280;27205;53.690;19.948;2023-05-08T19:43:27;101333.75;;;12.42;20.56
41467;BME280;27205;53.690;19.948;2023-05-08T19:48:29;101338.13;;;12.12;21.33
41467;BME280;27205;53.690;19.948;2023-05-08T19:53:31;101336.71;;;11.82;21.49
41467;BME280;27205;53.690;19.948;2023-05-08T19:58:33;101335.45;;;11.58;22.56
41467;BME280;27205;53.690;19.948;2023-05-08T20:03:36;101335.20;;;11.39;22.82
41467;BME280;27205;53.690;19.948;2023-05-08T20:08:38;101332.86;;;11.18;23.52
41467;BME280;27205;53.690;19.948;2023-05-08T20:13:40;101332.79;;;10.99;23.38
41467;BME280;27205;53.690;19.948;2023-05-08T20:18:42;101328.48;;;10.82;23.59
41467;BME280;27205;53.690;19.948;2023-05-08T20:23:45;101335.73;;;10.69;24.67
41467;BME280;27205;53.690;19.948;2023-05-08T20:28:47;101338.48;;;10.56;25.07
41467;BME280;27205;53.690;19.948;2023-05-08T20:33:50;101333.41;;;10.40;25.13
41467;BME280;27205;53.690;19.948;2023-05-08T20:38:52;101338.30;;;10.28;25.56
41467;BME280;27205;53.690;19.948;2023-05-08T20:43:56;101334.85;;;10.16;25.67
41467;BME280;27205;53.690;19.948;2023-05-08T20:49:00;101341.52;;;10.05;26.28
41467;BME280;27205;53.690;19.948;2023-05-08T21:00:13;101335.56;;;9.85;26.92
41467;BME280;27205;53.690;19.948;2023-05-08T21:05:16;101342.13;;;9.77;27.06
41467;BME280;27205;53.690;19.948;2023-05-08T21:10:19;101341.90;;;9.67;27.40
41467;BME280;27205;53.690;19.948;2023-05-08T21:15:21;101340.41;;;9.58;27.60
41467;BME280;27205;53.690;19.948;2023-05-08T21:20:23;101340.85;;;9.46;28.12
41467;BME280;27205;53.690;19.948;2023-05-08T21:25:26;101343.73;;;9.33;28.43
41467;BME280;27205;53.690;19.948;2023-05-08T21:30:35;101347.26;;;9.16;28.60
41467;BME280;27205;53.690;19.948;2023-05-08T21:35:37;101348.53;;;9.01;29.10
41467;BME280;27205;53.690;19.948;2023-05-08T21:40:39;101345.36;;;8.91;28.85
41467;BME280;27205;53.690;19.948;2023-05-08T21:45:42;101345.52;;;8.77;29.29
41467;BME280;27205;53.690;19.948;2023-05-08T21:50:44;101349.23;;;8.61;29.20
41467;BME280;27205;53.690;19.948;2023-05-08T21:55:46;101345.48;;;8.52;29.72
41467;BME280;27205;53.690;19.948;2023-05-08T22:00:48;101344.82;;;8.42;29.38
41467;BME280;27205;53.690;19.948;2023-05-08T22:05:50;101346.36;;;8.31;29.69
41467;BME280;27205;53.690;19.948;2023-05-08T22:10:53;101346.70;;;8.21;30.47
41467;BME280;27205;53.690;19.948;2023-05-08T22:15:55;101348.70;;;8.10;30.71
41467;BME280;27205;53.690;19.948;2023-05-08T22:20:58;101347.12;;;7.97;31.12
41467;BME280;27205;53.690;19.948;2023-05-08T22:26:00;101342.90;;;7.86;31.32
41467;BME280;27205;53.690;19.948;2023-05-08T22:31:03;101340.09;;;7.77;31.39
41467;BME280;27205;53.690;19.948;2023-05-08T22:36:08;101344.90;;;7.66;31.41
41467;BME280;27205;53.690;19.948;2023-05-08T22:41:10;101341.48;;;7.54;31.72
41467;BME280;27205;53.690;19.948;2023-05-08T22:46:13;101340.20;;;7.47;31.97
41467;BME280;27205;53.690;19.948;2023-05-08T22:51:18;101354.89;;;7.38;32.02
41467;BME280;27205;53.690;19.948;2023-05-08T22:56:20;101355.54;;;7.15;33.47
41467;BME280;27205;53.690;19.948;2023-05-08T23:01:22;101353.23;;;7.00;32.69
41467;BME280;27205;53.690;19.948;2023-05-08T23:06:25;101348.98;;;6.91;33.27
41467;BME280;27205;53.690;19.948;2023-05-08T23:11:27;101341.10;;;6.83;33.49
41467;BME280;27205;53.690;19.948;2023-05-08T23:16:29;101339.67;;;6.78;33.84
41467;BME280;27205;53.690;19.948;2023-05-08T23:21:32;101338.77;;;6.70;33.96
41467;BME280;27205;53.690;19.948;2023-05-08T23:26:34;101337.40;;;6.67;34.18
41467;BME280;27205;53.690;19.948;2023-05-08T23:31:36;101334.95;;;6.62;34.33
41467;BME280;27205;53.690;19.948;2023-05-08T23:36:39;101334.45;;;6.57;34.44
41467;BME280;27205;53.690;19.948;2023-05-08T23:41:41;101334.85;;;6.51;34.59
41467;BME280;27205;53.690;19.948;2023-05-08T23:46:44;101337.98;;;6.45;34.99
41467;BME280;27205;53.690;19.948;2023-05-08T23:51:47;101335.58;;;6.35;35.56
41467;BME280;27205;53.690;19.948;2023-05-08T23:56:49;101338.34;;;6.27;35.67
